Time;durP1;ratioP1;P1;durP2;ratioP2;P2;SDS_P1;SDS_P2;PMS_P1;PMS_P2;Temp;Humidity;BMP_temperature;BMP_pressure;BME280_temperature;BME280_humidity;BME280_pressure;Samples;Min_cycle;Max_cycle;Signal;HPM_P1;HPM_P2
2023/12/17 00:01:48;;;;;;;10.73;9.20;;;;;;;1.48;100.00;151748.50;5078298;28;20459;-80
2023/12/17 00:04:14;;;;;;;12.77;9.20;;;;;;;1.49;100.00;151749.72;5089620;28;20476;-80
2023/12/17 00:06:42;;;;;;;13.10;10.10;;;;;;;1.49;100.00;151751.03;5089846;28;20858;-80
2023/12/17 00:09:08;;;;;;;14.10;8.90;;;;;;;1.49;100.00;151749.72;5089032;28;21000;-80
2023/12/17 00:11:39;;;;;;;11.73;8.53;;;;;;;1.52;100.00;151757.44;5079131;28;20567;-80
2023/12/17 00:14:06;;;;;;;11.40;8.80;;;;;;;1.49;100.00;151749.72;5084003;28;20453;-81
2023/12/17 00:16:32;;;;;;;11.47;8.83;;;;;;;1.46;100.00;151742.00;5081785;28;20445;-81
2023/12/17 00:19:00;;;;;;;12.70;9.10;;;;;;;1.48;100.00;151747.19;5086680;28;20458;-80
2023/12/17 00:21:27;;;;;;;11.30;8.80;;;;;;;1.46;100.00;151743.31;5081758;28;20454;-80
2023/12/17 00:23:53;;;;;;;12.03;8.30;;;;;;;1.42;100.00;151731.75;5083844;28;20483;-80
2023/12/17 00:26:20;;;;;;;11.67;8.17;;;;;;;1.37;100.00;151718.91;5091748;28;20505;-81
2023/12/17 00:28:46;;;;;;;10.03;7.50;;;;;;;1.33;100.00;151709.91;5086899;28;20551;-80
2023/12/17 00:31:13;;;;;;;13.83;8.67;;;;;;;1.32;100.00;151706.06;5087141;28;20438;-81
2023/12/17 00:33:39;;;;;;;11.80;8.10;;;;;;;1.31;100.00;151704.78;5089844;28;20449;-81
2023/12/17 00:36:08;;;;;;;9.83;7.67;;;;;;;1.31;100.00;151703.50;5088809;28;20444;-80
2023/12/17 00:38:35;;;;;;;9.27;8.10;;;;;;;1.30;100.00;151702.19;5082361;28;20487;-80
2023/12/17 00:41:01;;;;;;;13.33;7.70;;;;;;;1.31;100.00;151704.78;5075201;28;20817;-80
2023/12/17 00:43:28;;;;;;;12.30;8.43;;;;;;;1.30;100.00;151700.94;5078567;28;20453;-80
2023/12/17 00:45:54;;;;;;;10.33;7.23;;;;;;;1.24;100.00;151688.06;5067473;28;20454;-80
2023/12/17 00:48:21;;;;;;;17.60;7.67;;;;;;;1.22;100.00;151681.63;5073761;28;20808;-80
2023/12/17 00:50:47;;;;;;;8.33;6.47;;;;;;;1.19;100.00;151675.22;5084713;28;20537;-81
2023/12/17 00:53:15;;;;;;;9.17;6.90;;;;;;;1.16;100.00;151667.56;5074436;28;20461;-80
2023/12/17 00:55:42;;;;;;;10.23;7.97;;;;;;;1.15;100.00;151663.66;5081209;28;20460;-80
2023/12/17 00:58:08;;;;;;;11.50;7.63;;;;;;;1.13;100.00;151659.84;5078701;28;20483;-80
2023/12/17 01:00:35;;;;;;;11.43;8.43;;;;;;;1.12;100.00;151657.25;5078047;28;20430;-80
2023/12/17 01:03:01;;;;;;;10.43;7.47;;;;;;;1.09;100.00;151649.53;5080753;28;20466;-80
2023/12/17 01:05:28;;;;;;;9.70;6.80;;;;;;;1.11;100.00;151654.66;5073791;28;20498;-80
2023/12/17 01:07:54;;;;;;;10.87;6.33;;;;;;;1.11;100.00;151654.66;5080253;28;20453;-81
2023/12/17 01:10:22;;;;;;;11.17;7.07;;;;;;;1.13;100.00;151659.84;5084886;28;20529;-80
2023/12/17 01:12:49;;;;;;;9.10;7.30;;;;;;;1.13;100.00;151658.53;5079651;28;20445;-80
2023/12/17 01:15:15;;;;;;;9.10;7.53;;;;;;;1.14;100.00;151661.09;5076296;28;20456;-80
2023/12/17 01:17:42;;;;;;;9.70;8.30;;;;;;;1.16;100.00;151667.56;5083938;28;20461;-80
2023/12/17 01:20:09;;;;;;;9.63;7.80;;;;;;;1.17;100.00;151670.09;5075892;28;20467;-81
2023/12/17 01:22:36;;;;;;;13.20;8.37;;;;;;;1.19;100.00;151675.22;5069677;28;20963;-80
2023/12/17 01:25:03;;;;;;;9.10;7.70;;;;;;;1.15;100.00;151664.97;5078987;28;20816;-80
2023/12/17 01:27:31;;;;;;;13.90;7.53;;;;;;;1.09;100.00;151648.25;5081995;28;20549;-80
2023/12/17 01:29:57;;;;;;;11.80;7.57;;;;;;;1.04;100.00;151636.69;5075120;28;20458;-80
2023/12/17 01:32:24;;;;;;;10.33;7.60;;;;;;;0.98;100.00;151621.28;5079931;28;20449;-80
2023/12/17 01:34:50;;;;;;;9.60;8.07;;;;;;;0.96;100.00;151614.84;5081674;28;20450;-80
2023/12/17 01:37:17;;;;;;;10.63;7.80;;;;;;;0.94;100.00;151611.03;5075747;28;20465;-80
2023/12/17 01:39:43;;;;;;;11.77;7.70;;;;;;;0.95;100.00;151613.59;5085571;28;20812;-80
2023/12/17 01:42:10;;;;;;;9.80;8.10;;;;;;;0.96;100.00;151616.16;5078327;28;20460;-80
2023/12/17 01:44:38;;;;;;;13.00;9.37;;;;;;;0.97;100.00;151618.72;5079594;28;20453;-80
2023/12/17 01:47:05;;;;;;;14.10;9.63;;;;;;;0.99;100.00;151623.84;5079629;28;20454;-80
2023/12/17 01:49:31;;;;;;;14.50;10.13;;;;;;;0.95;100.00;151613.59;5078133;28;20460;-80
2023/12/17 01:51:58;;;;;;;15.57;10.60;;;;;;;0.95;100.00;151613.59;5081577;28;20884;-80
2023/12/17 01:54:25;;;;;;;11.80;10.20;;;;;;;0.94;100.00;151611.03;5062317;28;20930;-80
2023/12/17 01:56:51;;;;;;;18.27;11.00;;;;;;;0.99;100.00;151623.84;5064847;28;20448;-80
2023/12/17 01:59:18;;;;;;;14.53;11.20;;;;;;;0.99;100.00;151623.84;5076619;28;20873;-80
2023/12/17 02:01:48;;;;;;;15.17;11.17;;;;;;;0.95;100.00;151613.59;5075173;28;20460;-80
2023/12/17 02:04:15;;;;;;;16.87;12.93;;;;;;;0.90;100.00;151600.72;5098012;28;20453;-80
2023/12/17 02:06:41;;;;;;;16.23;12.90;;;;;;;0.86;100.00;151589.19;5081109;28;20469;-80
2023/12/17 02:09:08;;;;;;;14.40;11.70;;;;;;;0.82;100.00;151580.16;5092207;28;20480;-80
2023/12/17 02:11:34;;;;;;;16.30;13.13;;;;;;;0.79;100.00;151572.50;5080167;28;20457;-80
2023/12/17 02:14:01;;;;;;;15.63;12.40;;;;;;;0.78;100.00;151569.91;5082514;28;20541;-80
2023/12/17 02:16:30;;;;;;;15.80;12.50;;;;;;;0.77;100.00;151566.09;5083192;28;20464;-80
2023/12/17 02:19:00;;;;;;;14.00;11.77;;;;;;;0.77;100.00;151566.09;5072895;28;20449;-80
2023/12/17 02:21:27;;;;;;;15.83;12.37;;;;;;;0.74;100.00;151559.66;5078807;28;20455;-80
2023/12/17 02:23:55;;;;;;;15.97;12.33;;;;;;;0.75;100.00;151560.91;5084465;28;20503;-80
2023/12/17 02:26:22;;;;;;;18.30;13.20;;;;;;;0.72;100.00;151554.50;5080895;28;20441;-80
2023/12/17 02:28:49;;;;;;;15.77;11.20;;;;;;;0.73;100.00;151557.09;5084729;28;20464;-80
2023/12/17 02:31:15;;;;;;;14.83;11.77;;;;;;;0.73;100.00;151557.09;5083253;28;20534;-80
2023/12/17 02:33:42;;;;;;;14.70;12.00;;;;;;;0.68;100.00;151544.25;5084515;28;20453;-80
2023/12/17 02:36:09;;;;;;;13.47;11.03;;;;;;;0.64;100.00;151532.72;5081780;28;20448;-80
2023/12/17 02:38:35;;;;;;;14.33;12.20;;;;;;;0.59;100.00;151521.13;5085495;28;20446;-80
2023/12/17 02:41:03;;;;;;;15.10;11.80;;;;;;;0.58;100.00;151518.59;5084361;28;20438;-80
2023/12/17 02:43:30;;;;;;;16.43;12.00;;;;;;;0.55;100.00;151510.88;5073064;28;20450;-80
2023/12/17 02:45:56;;;;;;;16.50;12.97;;;;;;;0.48;100.00;151492.88;5081073;28;20453;-80
2023/12/17 02:48:23;;;;;;;16.40;12.80;;;;;;;0.47;100.00;151491.63;5084060;28;20493;-80
2023/12/17 02:50:49;;;;;;;14.13;11.83;;;;;;;0.47;100.00;151490.34;5086564;28;20481;-80
2023/12/17 02:53:16;;;;;;;15.50;12.70;;;;;;;0.44;100.00;151483.91;5085589;28;20847;-80
2023/12/17 02:55:42;;;;;;;14.47;11.50;;;;;;;0.39;100.00;151469.78;5080829;28;20457;-81
2023/12/17 02:58:11;;;;;;;13.50;12.07;;;;;;;0.39;100.00;151469.78;5084311;28;20461;-81
2023/12/17 03:00:37;;;;;;;17.57;12.20;;;;;;;0.40;100.00;151472.31;5075468;28;20438;-81
2023/12/17 03:03:04;;;;;;;16.33;12.13;;;;;;;0.38;100.00;151468.50;5089134;28;20819;-81
2023/12/17 03:05:30;;;;;;;14.67;11.50;;;;;;;0.39;100.00;151471.09;5082996;28;20425;-81
2023/12/17 03:07:57;;;;;;;14.03;12.50;;;;;;;0.43;100.00;151481.31;5081441;28;21025;-81
2023/12/17 03:10:23;;;;;;;15.07;12.10;;;;;;;0.43;100.00;151481.31;5071189;28;20482;-81
2023/12/17 03:12:53;;;;;;;13.93;11.50;;;;;;;0.46;100.00;151487.75;5084758;28;20800;-80
2023/12/17 03:15:20;;;;;;;14.57;11.57;;;;;;;0.48;100.00;151492.88;5062884;28;20443;-81
2023/12/17 03:17:47;;;;;;;13.93;11.13;;;;;;;0.47;100.00;151490.34;5077382;28;20847;-81
2023/12/17 03:20:14;;;;;;;13.87;10.90;;;;;;;0.45;100.00;151485.22;5090018;28;20812;-81
2023/12/17 03:22:40;;;;;;;16.60;11.43;;;;;;;0.44;100.00;151482.63;5090066;28;20539;-81
2023/12/17 03:25:08;;;;;;;16.97;12.03;;;;;;;0.45;100.00;151485.22;5087297;28;20456;-80
2023/12/17 03:27:34;;;;;;;18.57;12.30;;;;;;;0.47;100.00;151490.34;5070770;28;20454;-81
2023/12/17 03:30:01;;;;;;;15.30;11.93;;;;;;;0.46;100.00;151487.75;5073957;28;20580;-80
2023/12/17 03:32:29;;;;;;;16.00;11.50;;;;;;;0.43;100.00;151480.03;5083136;28;20453;-81
2023/12/17 03:34:55;;;;;;;14.53;12.00;;;;;;;0.43;100.00;151480.03;5082973;28;20510;-81
2023/12/17 03:37:22;;;;;;;17.07;12.63;;;;;;;0.42;100.00;151477.50;5080087;28;20521;-81
2023/12/17 03:39:50;;;;;;;17.40;12.33;;;;;;;0.42;100.00;151477.50;5082432;28;20450;-80
2023/12/17 03:42:16;;;;;;;13.40;10.30;;;;;;;0.42;100.00;151478.78;5084922;28;20879;-80
2023/12/17 03:44:44;;;;;;;17.13;13.00;;;;;;;0.42;100.00;151477.50;5085281;28;20948;-80
2023/12/17 03:47:11;;;;;;;15.73;12.40;;;;;;;0.41;100.00;151474.91;5076157;28;20822;-80
2023/12/17 03:49:39;;;;;;;14.00;11.70;;;;;;;0.40;100.00;151473.63;5088334;28;20476;-80
2023/12/17 03:52:07;;;;;;;15.10;10.83;;;;;;;0.38;100.00;151467.19;5085653;28;20887;-80
2023/12/17 03:54:33;;;;;;;17.07;13.10;;;;;;;0.37;100.00;151465.91;5081829;28;20480;-80
2023/12/17 03:57:00;;;;;;;15.50;12.20;;;;;;;0.39;100.00;151469.78;5082450;28;20861;-80
2023/12/17 03:59:27;;;;;;;15.87;12.70;;;;;;;0.40;100.00;151472.31;5085308;28;20514;-79
2023/12/17 04:01:53;;;;;;;18.37;12.20;;;;;;;0.35;100.00;151459.50;5079311;28;20835;-79
2023/12/17 04:04:20;;;;;;;15.90;12.87;;;;;;;0.32;100.00;151451.84;5078672;28;20449;-79
2023/12/17 04:06:48;;;;;;;19.53;13.70;;;;;;;0.32;100.00;151451.84;5081328;28;20445;-80
2023/12/17 04:09:14;;;;;;;18.47;13.03;;;;;;;0.31;100.00;151450.53;5079031;28;21011;-80
2023/12/17 04:11:41;;;;;;;13.87;11.60;;;;;;;0.30;100.00;151446.66;5081910;28;20438;-80
2023/12/17 04:14:07;;;;;;;18.17;12.40;;;;;;;0.33;100.00;151454.38;5084087;28;20754;-80
2023/12/17 04:16:34;;;;;;;17.57;11.47;;;;;;;0.34;100.00;151458.25;5080956;28;20445;-80
2023/12/17 04:19:00;;;;;;;14.23;11.80;;;;;;;0.33;100.00;151455.66;5080521;28;20533;-79
2023/12/17 04:21:27;;;;;;;16.03;13.00;;;;;;;0.32;100.00;151451.84;5079435;28;20978;-79
2023/12/17 04:23:55;;;;;;;16.43;12.13;;;;;;;0.29;100.00;151445.38;5077400;28;20453;-79
2023/12/17 04:26:21;;;;;;;15.80;11.90;;;;;;;0.28;100.00;151441.53;5080769;28;20444;-79
2023/12/17 04:28:48;;;;;;;15.57;13.13;;;;;;;0.27;100.00;151438.97;5082910;28;20855;-79
2023/12/17 04:31:15;;;;;;;13.80;12.10;;;;;;;0.24;100.00;151432.53;5081185;28;20469;-78
2023/12/17 04:33:40;;;;;;;15.70;11.80;;;;;;;0.24;100.00;151432.53;5082202;28;20444;-80
2023/12/17 04:36:08;;;;;;;16.27;12.57;;;;;;;0.24;100.00;151432.53;5083690;28;20453;-79
2023/12/17 04:38:34;;;;;;;20.67;13.13;;;;;;;0.24;100.00;151432.53;5084532;28;20208;-79
2023/12/17 04:41:02;;;;;;;16.37;12.40;;;;;;;0.25;100.00;151433.84;5077611;28;20450;-79
2023/12/17 04:43:29;;;;;;;15.37;11.60;;;;;;;0.25;100.00;151433.84;5082204;28;20502;-79
2023/12/17 04:45:56;;;;;;;17.00;11.50;;;;;;;0.27;100.00;151440.25;5080651;28;20448;-79
2023/12/17 04:48:22;;;;;;;15.90;12.47;;;;;;;0.27;100.00;151440.25;5078751;28;20440;-79
2023/12/17 04:50:49;;;;;;;16.10;13.43;;;;;;;0.28;100.00;151442.84;5077556;28;20560;-78
2023/12/17 04:53:15;;;;;;;20.03;12.83;;;;;;;0.29;100.00;151444.13;5070291;28;20466;-78
2023/12/17 04:55:42;;;;;;;14.40;12.23;;;;;;;0.30;100.00;151446.66;5079280;28;20832;-80
2023/12/17 04:58:10;;;;;;;17.00;13.53;;;;;;;0.30;100.00;151446.66;5078243;28;20464;-79
2023/12/17 05:00:36;;;;;;;14.20;12.37;;;;;;;0.28;100.00;151441.53;5078997;28;20476;-79
2023/12/17 05:03:03;;;;;;;14.93;12.37;;;;;;;0.26;100.00;151437.72;5070474;28;20533;-80
2023/12/17 05:05:29;;;;;;;15.70;12.50;;;;;;;0.27;100.00;151438.97;5070790;28;20453;-79
2023/12/17 05:07:56;;;;;;;15.73;12.20;;;;;;;0.27;100.00;151440.25;5079094;28;20780;-79
2023/12/17 05:10:22;;;;;;;17.30;13.10;;;;;;;0.28;100.00;151441.53;5079245;28;20468;-79
2023/12/17 05:12:49;;;;;;;16.70;12.17;;;;;;;0.26;100.00;151436.41;5086960;28;20469;-79
2023/12/17 05:15:17;;;;;;;17.90;12.77;;;;;;;0.27;100.00;151440.25;5086744;28;20971;-79
2023/12/17 05:17:43;;;;;;;14.90;11.30;;;;;;;0.27;100.00;151438.97;5083548;28;20468;-74
2023/12/17 05:20:10;;;;;;;17.90;12.70;;;;;;;0.27;100.00;151440.25;5075720;28;20460;-74
2023/12/17 05:22:37;;;;;;;14.10;12.20;;;;;;;0.27;100.00;151438.97;5080598;28;20449;-74
2023/12/17 05:25:04;;;;;;;15.03;12.20;;;;;;;0.25;100.00;151433.84;5087872;28;20433;-74
2023/12/17 05:27:30;;;;;;;17.00;12.63;;;;;;;0.24;100.00;151431.28;5077808;28;20461;-74
2023/12/17 05:29:57;;;;;;;15.80;11.93;;;;;;;0.22;100.00;151426.13;5082866;28;20468;-74
2023/12/17 05:32:25;;;;;;;14.70;12.07;;;;;;;0.22;100.00;151427.41;5075448;28;20458;-75
2023/12/17 05:34:51;;;;;;;14.80;12.20;;;;;;;0.22;100.00;151426.13;5074942;28;20443;-75
2023/12/17 05:37:18;;;;;;;14.10;11.77;;;;;;;0.22;100.00;151426.13;5083178;28;20461;-74
2023/12/17 05:39:44;;;;;;;16.70;12.20;;;;;;;0.22;100.00;151426.13;5075025;28;21084;-75
2023/12/17 05:42:11;;;;;;;15.73;11.23;;;;;;;0.22;100.00;151426.13;5075800;28;20468;-75
2023/12/17 05:44:38;;;;;;;17.03;12.70;;;;;;;0.24;100.00;151431.28;5091769;28;20527;-75
2023/12/17 05:47:04;;;;;;;14.23;11.70;;;;;;;0.24;100.00;151431.28;5101096;28;20432;-76
2023/12/17 05:49:32;;;;;;;15.60;11.60;;;;;;;0.23;100.00;151428.72;5081497;28;20446;-75
2023/12/17 05:51:59;;;;;;;14.33;11.53;;;;;;;0.23;100.00;151430.00;5088487;28;20998;-75
2023/12/17 05:54:25;;;;;;;13.30;11.30;;;;;;;0.21;100.00;151424.88;5081470;28;20528;-75
2023/12/17 05:56:52;;;;;;;16.33;11.47;;;;;;;0.20;100.00;151421.00;5083367;28;20459;-74
2023/12/17 05:59:18;;;;;;;16.07;11.80;;;;;;;0.19;100.00;151419.72;5069102;28;20434;-73
2023/12/17 06:01:45;;;;;;;14.27;11.67;;;;;;;0.22;100.00;151427.41;5081662;28;20835;-74
2023/12/17 06:04:12;;;;;;;14.20;10.67;;;;;;;0.22;100.00;151426.13;5084469;28;20469;-75
2023/12/17 06:06:40;;;;;;;14.13;10.73;;;;;;;0.22;100.00;151426.13;5086455;28;20555;-75
2023/12/17 06:09:07;;;;;;;14.37;11.10;;;;;;;0.21;100.00;151424.88;5085201;28;20805;-74
2023/12/17 06:11:33;;;;;;;17.50;11.27;;;;;;;0.19;100.00;151418.41;5081896;28;20480;-75
2023/12/17 06:14:00;;;;;;;13.37;10.10;;;;;;;0.18;100.00;151415.88;5085863;28;20518;-75
2023/12/17 06:16:29;;;;;;;12.63;10.93;;;;;;;0.16;100.00;151412.00;5086522;28;20862;-74
2023/12/17 06:18:56;;;;;;;12.80;10.60;;;;;;;0.16;100.00;151412.00;5076581;28;20958;-75
2023/12/17 06:21:23;;;;;;;13.70;10.27;;;;;;;0.15;100.00;151409.47;5086253;28;20441;-75
2023/12/17 06:23:52;;;;;;;14.57;10.67;;;;;;;0.18;100.00;151415.88;5087319;28;20911;-75
2023/12/17 06:26:19;;;;;;;11.50;9.37;;;;;;;0.14;100.00;151405.59;5084096;28;20445;-75
2023/12/17 06:28:45;;;;;;;13.77;11.00;;;;;;;0.07;100.00;151387.63;5084702;28;20837;-75
2023/12/17 06:31:12;;;;;;;13.60;11.20;;;;;;;0.06;100.00;151385.06;5086315;28;20480;-75
2023/12/17 06:33:38;;;;;;;15.10;10.73;;;;;;;0.08;100.00;151390.22;5085692;28;20465;-75
2023/12/17 06:36:06;;;;;;;13.97;10.27;;;;;;;0.07;100.00;151388.94;5084531;28;20460;-75
2023/12/17 06:38:33;;;;;;;13.70;10.30;;;;;;;0.09;100.00;151392.75;5083358;28;20483;-75
2023/12/17 06:41:00;;;;;;;13.27;11.40;;;;;;;0.14;100.00;151405.59;5088193;28;20456;-75
2023/12/17 06:43:27;;;;;;;13.43;10.43;;;;;;;0.18;100.00;151415.88;5083938;28;20464;-75
2023/12/17 06:45:54;;;;;;;14.00;9.83;;;;;;;0.19;100.00;151418.41;5086563;28;21030;-75
2023/12/17 06:48:21;;;;;;;12.97;10.47;;;;;;;0.19;100.00;151418.41;5082171;28;20453;-75
2023/12/17 06:50:47;;;;;;;13.00;9.70;;;;;;;0.20;100.00;151421.00;5084500;28;20773;-75
2023/12/17 06:53:16;;;;;;;11.73;9.23;;;;;;;0.20;100.00;151421.00;5086860;28;20457;-75
2023/12/17 06:55:43;;;;;;;17.60;10.87;;;;;;;0.21;100.00;151423.59;5084392;28;20993;-75
2023/12/17 06:58:12;;;;;;;12.27;9.30;;;;;;;0.24;100.00;151431.28;5086158;28;20468;-75
2023/12/17 07:00:38;;;;;;;15.67;10.50;;;;;;;0.25;100.00;151433.84;5082036;28;20449;-75
2023/12/17 07:03:05;;;;;;;11.97;8.30;;;;;;;0.21;100.00;151423.59;5078986;28;20465;-75
2023/12/17 07:05:31;;;;;;;12.27;9.50;;;;;;;0.22;100.00;151426.13;5082373;28;20822;-75
2023/12/17 07:07:58;;;;;;;15.10;10.83;;;;;;;0.22;100.00;151426.13;5081203;28;20457;-75
2023/12/17 07:10:24;;;;;;;13.17;10.00;;;;;;;0.21;100.00;151424.88;5083697;28;20453;-75
2023/12/17 07:12:51;;;;;;;11.77;9.03;;;;;;;0.23;100.00;151428.72;5085505;28;20530;-75
2023/12/17 07:15:19;;;;;;;15.93;9.80;;;;;;;0.22;100.00;151426.13;5085682;28;20449;-75
2023/12/17 07:17:45;;;;;;;14.27;10.33;;;;;;;0.19;100.00;151418.41;5083312;28;20472;-75
2023/12/17 07:20:12;;;;;;;12.27;8.97;;;;;;;0.16;100.00;151412.00;5085431;28;20851;-75
2023/12/17 07:22:39;;;;;;;11.80;10.30;;;;;;;0.17;100.00;151413.28;5080234;28;20444;-75
2023/12/17 07:25:06;;;;;;;12.50;10.23;;;;;;;0.18;100.00;151417.19;5085157;28;20451;-75
2023/12/17 07:27:32;;;;;;;12.83;10.27;;;;;;;0.21;100.00;151423.59;5081984;28;20567;-75
2023/12/17 07:29:59;;;;;;;12.30;9.47;;;;;;;0.24;100.00;151431.28;5085892;28;20449;-75
2023/12/17 07:32:27;;;;;;;13.20;9.67;;;;;;;0.28;100.00;151441.53;5082961;28;20870;-75
2023/12/17 07:34:53;;;;;;;13.70;10.40;;;;;;;0.29;100.00;151445.38;5079802;28;20515;-75
2023/12/17 07:37:20;;;;;;;17.73;10.97;;;;;;;0.35;100.00;151459.50;5083131;28;20465;-75
2023/12/17 07:39:46;;;;;;;12.07;10.53;;;;;;;0.39;100.00;151469.78;5088028;28;20450;-75
2023/12/17 07:42:13;;;;;;;13.20;10.10;;;;;;;0.46;100.00;151487.75;5086808;28;20471;-75
2023/12/17 07:44:39;;;;;;;14.03;11.20;;;;;;;0.48;100.00;151494.16;5081473;28;20449;-75
2023/12/17 07:47:10;;;;;;;14.47;11.10;;;;;;;0.51;100.00;151500.56;5082455;28;21008;-74
2023/12/17 07:49:38;;;;;;;15.07;12.60;;;;;;;0.53;100.00;151505.75;5080739;28;20456;-74
2023/12/17 07:52:05;;;;;;;14.93;11.77;;;;;;;0.54;100.00;151509.59;5080474;28;20527;-75
2023/12/17 07:54:32;;;;;;;16.07;11.90;;;;;;;0.55;100.00;151510.88;5083850;28;20453;-74
2023/12/17 07:56:59;;;;;;;14.87;12.00;;;;;;;0.53;100.00;151505.75;5085351;28;20809;-75
2023/12/17 07:59:26;;;;;;;15.50;11.20;;;;;;;0.52;100.00;151503.16;5083418;28;20451;-74
2023/12/17 08:01:52;;;;;;;15.10;11.70;;;;;;;0.55;100.00;151510.88;5081316;28;20502;-74
2023/12/17 08:04:19;;;;;;;15.27;11.67;;;;;;;0.58;100.00;151518.59;5097199;28;20454;-75
2023/12/17 08:06:47;;;;;;;13.40;11.80;;;;;;;0.61;100.00;151527.53;5080234;28;20464;-75
2023/12/17 08:09:15;;;;;;;15.00;12.27;;;;;;;0.65;100.00;151536.53;5082905;28;20488;-75
2023/12/17 08:11:43;;;;;;;13.63;11.20;;;;;;;0.65;100.00;151535.25;5060427;28;20878;-75
2023/12/17 08:14:10;;;;;;;14.27;10.70;;;;;;;0.67;100.00;151541.66;5082885;28;20453;-75
2023/12/17 08:16:36;;;;;;;16.03;12.23;;;;;;;0.72;100.00;151553.22;5081044;28;20448;-75
2023/12/17 08:19:03;;;;;;;11.60;10.40;;;;;;;0.74;100.00;151559.66;5067357;28;20456;-74
2023/12/17 08:21:29;;;;;;;14.67;12.50;;;;;;;0.76;100.00;151564.81;5084093;28;20524;-75
2023/12/17 08:23:57;;;;;;;15.20;11.97;;;;;;;0.78;100.00;151568.63;5081374;28;20471;-74
2023/12/17 08:26:24;;;;;;;16.90;12.60;;;;;;;0.80;100.00;151573.75;5080280;28;20498;-74
2023/12/17 08:28:50;;;;;;;17.83;13.60;;;;;;;0.84;100.00;151584.06;5082518;28;20848;-74
2023/12/17 08:31:17;;;;;;;15.63;12.83;;;;;;;0.87;100.00;151593.06;5081634;28;20798;-74
2023/12/17 08:33:44;;;;;;;16.50;13.30;;;;;;;0.92;100.00;151605.91;5076607;28;20456;-74
2023/12/17 08:36:11;;;;;;;14.80;12.33;;;;;;;1.00;100.00;151625.16;5082251;28;20476;-74
2023/12/17 08:38:39;;;;;;;13.27;11.83;;;;;;;1.07;100.00;151644.41;5094838;28;20464;-74
2023/12/17 08:41:07;;;;;;;13.77;11.87;;;;;;;1.12;100.00;151657.25;5080771;28;20531;-74
2023/12/17 08:43:34;;;;;;;16.73;12.13;;;;;;;1.15;100.00;151664.97;5085247;28;20803;-75
2023/12/17 08:46:00;;;;;;;16.43;13.40;;;;;;;1.18;100.00;151671.38;5080429;28;20445;-75
2023/12/17 08:48:27;;;;;;;13.07;11.30;;;;;;;1.21;100.00;151680.41;5080713;28;20460;-74
2023/12/17 08:50:53;;;;;;;12.90;10.57;;;;;;;1.26;100.00;151690.66;5077459;28;20468;-74
2023/12/17 08:53:22;;;;;;;13.93;11.80;;;;;;;1.27;100.00;151693.22;5080574;28;21286;-74
2023/12/17 08:55:49;;;;;;;12.60;11.10;;;;;;;1.30;100.00;151700.94;5080564;28;20519;-74
2023/12/17 08:58:17;;;;;;;12.63;11.17;;;;;;;1.33;100.00;151708.63;5082935;28;21033;-74
2023/12/17 09:00:43;;;;;;;15.60;11.80;;;;;;;1.34;100.00;151711.19;5082273;28;20511;-74
2023/12/17 09:03:10;;;;;;;16.27;12.90;;;;;;;1.35;100.00;151713.78;5080293;28;20974;-75
2023/12/17 09:05:36;;;;;;;16.03;11.83;;;;;;;1.36;100.00;151716.31;5083571;28;20449;-74
2023/12/17 09:08:03;;;;;;;13.17;11.43;;;;;;;1.38;100.00;151722.75;5082541;28;20460;-74
2023/12/17 09:10:30;;;;;;;13.50;10.70;;;;;;;1.41;100.00;151730.47;5082092;28;20506;-74
2023/12/17 09:12:56;;;;;;;13.60;10.90;;;;;;;1.47;100.00;151744.59;5083047;28;20476;-74
2023/12/17 09:15:25;;;;;;;15.37;11.60;;;;;;;1.52;100.00;151757.44;5082816;28;21017;-74
2023/12/17 09:17:52;;;;;;;12.37;10.70;;;;;;;1.56;100.00;151767.75;5083981;28;20457;-74
2023/12/17 09:20:19;;;;;;;12.13;10.83;;;;;;;1.62;100.00;151783.13;5079277;28;20957;-74
2023/12/17 09:22:46;;;;;;;12.43;11.13;;;;;;;1.66;100.00;151793.44;5075941;28;20896;-73
2023/12/17 09:25:12;;;;;;;13.40;10.93;;;;;;;1.69;100.00;151801.16;5078926;28;20864;-73
2023/12/17 09:27:39;;;;;;;12.40;9.77;;;;;;;1.71;100.00;151806.28;5082892;28;21002;-74
2023/12/17 09:30:08;;;;;;;13.47;11.27;;;;;;;1.74;100.00;151814.00;5082666;28;20542;-75
2023/12/17 09:32:36;;;;;;;12.37;10.87;;;;;;;1.78;100.00;151825.56;5085278;28;20817;-74
2023/12/17 09:35:02;;;;;;;12.80;10.57;;;;;;;1.84;100.00;151839.72;5078611;28;20477;-74
2023/12/17 09:37:29;;;;;;;13.53;11.43;;;;;;;1.89;100.00;151851.25;5083789;28;20453;-75
2023/12/17 09:39:57;;;;;;;13.70;11.07;;;;;;;1.93;100.00;151862.88;5077340;28;20882;-74
2023/12/17 09:42:24;;;;;;;13.30;11.07;;;;;;;1.98;100.00;151874.41;5082588;28;21061;-74
2023/12/17 09:44:51;;;;;;;12.83;11.53;;;;;;;2.01;100.00;151883.44;5081953;28;20464;-75
2023/12/17 09:47:17;;;;;;;14.70;11.17;;;;;;;2.02;100.00;151885.97;5081735;28;20449;-73
2023/12/17 09:49:46;;;;;;;13.17;11.40;;;;;;;2.04;100.00;151891.09;5081262;28;20796;-73
2023/12/17 09:52:13;;;;;;;15.33;13.00;;;;;;;2.05;100.00;151893.69;5082969;28;20485;-74
2023/12/17 09:54:41;;;;;;;16.30;13.40;;;;;;;2.06;100.00;151896.28;5081515;28;21024;-74
2023/12/17 09:57:08;;;;;;;14.17;12.67;;;;;;;2.09;100.00;151902.72;5083795;28;20468;-74
2023/12/17 09:59:34;;;;;;;14.97;12.60;;;;;;;2.10;100.00;151906.53;5078520;28;20448;-74
2023/12/17 10:02:02;;;;;;;14.00;12.57;;;;;;;2.11;100.00;151909.13;5083041;28;20806;-74
2023/12/17 10:04:29;;;;;;;16.40;13.20;;;;;;;2.14;100.00;151916.84;5084859;28;20476;-74
2023/12/17 10:06:57;;;;;;;14.73;12.53;;;;;;;2.16;100.00;151920.69;5082033;28;20827;-74
2023/12/17 10:09:23;;;;;;;14.40;11.80;;;;;;;2.17;100.00;151924.53;5082617;28;20815;-74
2023/12/17 10:11:50;;;;;;;13.33;11.47;;;;;;;2.19;100.00;151929.72;5059301;28;20556;-73
2023/12/17 10:14:23;;;;;;;13.10;11.70;;;;;;;2.21;100.00;151934.84;5084251;28;20456;-73
2023/12/17 10:16:51;;;;;;;18.33;11.90;;;;;;;2.23;100.00;151939.97;5078644;28;20823;-75
2023/12/17 10:19:17;;;;;;;13.77;12.30;;;;;;;2.28;100.00;151951.53;5075249;28;20452;-75
2023/12/17 10:21:44;;;;;;;13.93;11.47;;;;;;;2.33;100.00;151965.66;5085128;28;20436;-74
2023/12/17 10:24:12;;;;;;;11.20;10.07;;;;;;;2.35;100.00;151969.56;5087672;28;20506;-75
2023/12/17 10:26:43;;;;;;;12.27;10.77;;;;;;;2.40;100.00;151983.72;5085731;28;20550;-74
2023/12/17 10:29:11;;;;;;;14.37;11.60;;;;;;;2.41;100.00;151986.25;5085915;28;20488;-73
2023/12/17 10:31:38;;;;;;;12.10;10.13;;;;;;;2.47;100.00;152001.69;5083770;28;20469;-75
2023/12/17 10:34:11;;;;;;;12.17;10.80;;;;;;;2.52;100.00;152013.25;5086288;28;20570;-73
2023/12/17 10:36:38;;;;;;;13.73;11.57;;;;;;;2.55;100.00;152019.69;5086651;28;20445;-74
2023/12/17 10:39:06;;;;;;;13.03;10.57;;;;;;;2.57;100.00;152024.88;5084931;28;20457;-75
2023/12/17 10:41:35;;;;;;;10.80;9.67;;;;;;;2.58;100.00;152027.41;5080291;28;20968;-73
2023/12/17 10:44:02;;;;;;;13.10;11.77;;;;;;;2.59;100.00;152031.28;5082513;28;20981;-74
2023/12/17 10:46:30;;;;;;;11.57;10.40;;;;;;;2.60;100.00;152032.53;5083425;28;20479;-74
2023/12/17 10:48:57;;;;;;;12.80;11.50;;;;;;;2.61;100.00;152035.13;5086429;28;20555;-73
2023/12/17 10:51:24;;;;;;;12.60;11.27;;;;;;;2.62;100.00;152038.97;5086828;28;20844;-74
2023/12/17 10:53:50;;;;;;;12.30;10.87;;;;;;;2.67;100.00;152051.88;5086279;28;20833;-73
2023/12/17 10:56:17;;;;;;;13.27;11.97;;;;;;;2.68;100.00;152053.13;5080180;28;20446;-74
2023/12/17 10:58:46;;;;;;;14.70;10.87;;;;;;;2.70;100.00;152059.56;5086808;28;20445;-73
2023/12/17 11:01:13;;;;;;;14.60;13.10;;;;;;;2.73;100.00;152065.97;5082187;28;20518;-74
2023/12/17 11:03:40;;;;;;;13.13;11.83;;;;;;;2.73;100.00;152065.97;5086302;28;20449;-74
2023/12/17 11:06:07;;;;;;;14.40;12.23;;;;;;;2.77;100.00;152076.28;5085309;28;20465;-73
2023/12/17 11:08:35;;;;;;;13.97;11.80;;;;;;;2.80;100.00;152084.03;5087436;28;20984;-73
2023/12/17 11:11:02;;;;;;;13.17;11.70;;;;;;;2.83;100.00;152093.00;5083308;28;20449;-73